Tulsa, Oklahoma
Current Conditions -  °F | °C
As of 5:53 AM on Sunday 21 Dec 2014 (Local Time) from KTUL Reporting Station
Overcast Overcast  
Wind Chill: 38°   Ceiling: 600
Heat Index: 43°   Visibility: 7mi
Dew Point: 42°   Wind: 8mph
Humidity: 97%   Direction: 160°SSE
Pressure: 30.09"   Gusts: NA
Location:  36.15°N, 95.99°W
Report Text: KTUL 211153Z 16007KT 7SM BKN006 OVC035 06/06 A3009 RMK AO2 SLP191 60000 T00610056 10061 20056 56016
Loading
Personal Weather Stations






























Interactive Weather Map New forecast layout! Learn more

10-Day Weather Forecast

Advertisements
Track Severe Weather on mobile